createdAt,value
2018-12-23T00:01:50.751Z,97754.05
2018-12-23T00:04:38.423Z,97751.12
2018-12-23T00:07:20.679Z,97753.34
2018-12-23T00:13:02.225Z,97760.86
2018-12-23T00:15:37.815Z,97758.36
2018-12-23T00:18:19.399Z,97765.91
2018-12-23T00:20:52.449Z,97767.76
2018-12-23T00:23:23.317Z,97771.97
2018-12-23T00:26:05.414Z,97767.41
2018-12-23T00:28:47.400Z,97764.00
2018-12-23T00:31:20.504Z,97769.30
2018-12-23T00:34:07.604Z,97774.34
2018-12-23T00:36:50.049Z,97784.78
2018-12-23T00:39:31.320Z,97791.50
2018-12-23T00:42:04.536Z,97786.59
2018-12-23T00:44:47.014Z,97777.61
2018-12-23T00:47:21.935Z,97772.80
2018-12-23T00:49:57.567Z,97780.56
2018-12-23T00:52:39.116Z,97779.09
2018-12-23T00:55:21.087Z,97769.28
2018-12-23T00:58:02.863Z,97774.65
2018-12-23T01:00:36.676Z,97773.94
2018-12-23T01:03:19.020Z,97781.72
2018-12-23T01:06:01.737Z,97773.19
2018-12-23T01:08:44.124Z,97776.19
2018-12-23T01:11:19.537Z,97774.30
2018-12-23T01:14:01.616Z,97793.66
2018-12-23T01:16:32.951Z,97803.99
2018-12-23T01:19:04.896Z,97798.78
2018-12-23T01:21:37.891Z,97797.02
2018-12-23T01:24:19.759Z,97794.13
2018-12-23T01:26:55.304Z,97805.67
2018-12-23T01:29:36.499Z,97808.41
2018-12-23T01:32:10.023Z,97809.22
2018-12-23T01:34:51.715Z,97813.59
2018-12-23T01:37:33.770Z,97804.44
2018-12-23T01:40:15.796Z,97802.13
2018-12-23T01:42:57.845Z,97806.48
2018-12-23T01:45:39.686Z,97814.57
2018-12-23T01:48:22.692Z,97822.52
2018-12-23T01:50:55.704Z,97825.42
2018-12-23T01:53:37.720Z,97821.69
2018-12-23T01:56:19.575Z,97815.48
2018-12-23T01:59:01.515Z,97822.61
2018-12-23T02:01:34.500Z,97819.69
2018-12-23T02:04:16.436Z,97814.80
2018-12-23T02:06:49.740Z,97819.03
2018-12-23T02:09:25.184Z,97822.19
2018-12-23T02:11:59.994Z,97821.82
2018-12-23T02:14:45.139Z,97814.34
2018-12-23T02:17:27.448Z,97819.63
2018-12-23T02:20:00.715Z,97822.66
2018-12-23T02:22:42.488Z,97821.75
2018-12-23T02:25:23.706Z,97824.13
2018-12-23T02:28:05.504Z,97825.39
2018-12-23T02:30:38.725Z,97817.94
2018-12-23T02:33:20.492Z,97806.22
2018-12-23T02:36:02.577Z,97809.53
2018-12-23T02:38:38.101Z,97804.00
2018-12-23T02:41:11.047Z,97808.20
2018-12-23T02:43:54.905Z,97806.44
2018-12-23T02:46:41.716Z,97806.64
2018-12-23T02:49:14.840Z,97808.16
2018-12-23T02:51:48.077Z,97808.50
2018-12-23T02:54:30.069Z,97812.98
2018-12-23T02:57:11.916Z,97812.21
2018-12-23T02:59:59.868Z,97811.69
2018-12-23T03:02:41.007Z,97802.50
2018-12-23T03:05:22.890Z,97795.19
2018-12-23T03:08:04.968Z,97779.20
2018-12-23T03:10:38.115Z,97777.52
2018-12-23T03:13:20.048Z,97800.72
2018-12-23T03:16:01.602Z,97798.47
2018-12-23T03:18:42.728Z,97789.95
2018-12-23T03:21:16.104Z,97786.95
2018-12-23T03:23:58.132Z,97794.80
2018-12-23T03:26:33.886Z,97794.89
2018-12-23T03:29:13.856Z,97798.96
2018-12-23T03:31:46.676Z,97804.16
2018-12-23T03:34:28.736Z,97802.55
2018-12-23T03:37:10.646Z,97805.39
2018-12-23T03:39:41.825Z,97808.39
2018-12-23T03:42:14.723Z,97809.84
2018-12-23T03:44:57.125Z,97815.85
2018-12-23T03:47:43.873Z,97819.43
2018-12-23T03:50:17.119Z,97820.55
2018-12-23T03:52:52.775Z,97826.12
2018-12-23T03:55:34.302Z,97825.84
2018-12-23T03:58:16.223Z,97830.77
2018-12-23T04:00:51.947Z,97829.59
2018-12-23T04:03:33.320Z,97834.11
2018-12-23T04:06:24.416Z,97841.73
2018-12-23T04:09:13.892Z,97836.48
2018-12-23T04:11:51.159Z,97837.67
2018-12-23T04:14:38.377Z,97834.87
2018-12-23T04:17:21.307Z,97826.91
2018-12-23T04:20:02.955Z,97826.02
2018-12-23T04:22:44.827Z,97814.91
2018-12-23T04:25:26.529Z,97821.61
2018-12-23T04:28:08.344Z,97819.58
2018-12-23T04:30:41.623Z,97824.51
2018-12-23T04:33:23.708Z,97833.55
2018-12-23T04:36:05.326Z,97823.41
2018-12-23T04:38:51.969Z,97818.12
2018-12-23T04:41:33.185Z,97825.62
2018-12-23T04:44:16.439Z,97826.91
2018-12-23T04:47:01.251Z,97824.37
2018-12-23T04:49:34.580Z,97838.05
2018-12-23T04:52:07.798Z,97834.46
2018-12-23T04:54:49.501Z,97829.48
2018-12-23T04:57:22.648Z,97809.66
2018-12-23T05:00:04.847Z,97825.30
2018-12-23T05:02:46.577Z,97836.30
2018-12-23T05:05:30.640Z,97831.53
2018-12-23T05:08:12.535Z,97826.44
2018-12-23T05:10:46.111Z,97817.09
2018-12-23T05:13:27.703Z,97820.45
2018-12-23T05:16:09.760Z,97824.92
2018-12-23T05:18:51.505Z,97829.34
2018-12-23T05:21:23.863Z,97841.82
2018-12-23T05:24:05.047Z,97847.25
2018-12-23T05:26:51.151Z,97843.17
2018-12-23T05:29:33.092Z,97850.73
2018-12-23T05:32:06.316Z,97857.83
2018-12-23T05:34:47.753Z,97854.92
2018-12-23T05:37:23.096Z,97842.78
2018-12-23T05:39:54.041Z,97842.64
2018-12-23T05:42:35.217Z,97835.33
2018-12-23T05:45:23.291Z,97846.12
2018-12-23T05:48:10.100Z,97839.06
2018-12-23T05:50:43.617Z,97842.70
2018-12-23T05:53:25.459Z,97834.34
2018-12-23T05:55:59.941Z,97836.91
2018-12-23T05:58:41.248Z,97839.57
2018-12-23T06:01:14.463Z,97836.11
2018-12-23T06:03:56.295Z,97841.02
2018-12-23T06:06:38.151Z,97851.50
2018-12-23T06:09:09.193Z,97856.45
2018-12-23T06:11:42.406Z,97859.66
2018-12-23T06:14:24.811Z,97860.37
2018-12-23T06:16:59.991Z,97868.05
2018-12-23T06:19:42.655Z,97868.56
2018-12-23T06:22:15.901Z,97858.78
2018-12-23T06:24:57.825Z,97866.19
2018-12-23T06:27:38.979Z,97869.93
2018-12-23T06:33:20.257Z,97866.94
2018-12-23T06:36:02.201Z,97861.66
2018-12-23T06:38:37.072Z,97858.63
2018-12-23T06:41:09.764Z,97853.34
2018-12-23T06:43:51.603Z,97851.17
2018-12-23T06:46:23.099Z,97865.98
2018-12-23T06:49:04.504Z,97865.28
2018-12-23T06:51:37.808Z,97866.61
2018-12-23T06:54:19.445Z,97867.41
2018-12-23T06:57:01.472Z,97875.73
2018-12-23T06:59:43.241Z,97883.98
2018-12-23T07:02:18.679Z,97877.40
2018-12-23T07:05:00.170Z,97870.90
2018-12-23T07:07:35.735Z,97863.92
2018-12-23T07:10:11.528Z,97863.80
2018-12-23T07:12:53.045Z,97868.87
2018-12-23T07:15:35.005Z,97877.13
2018-12-23T07:18:17.243Z,97877.11
2018-12-23T07:20:50.116Z,97879.50
2018-12-23T07:23:31.808Z,97880.33
2018-12-23T07:26:03.239Z,97878.10
2018-12-23T07:28:44.958Z,97879.05
2018-12-23T07:31:18.179Z,97883.70
2018-12-23T07:33:59.768Z,97882.55
2018-12-23T07:36:35.527Z,97881.84
2018-12-23T07:39:17.661Z,97890.69
2018-12-23T07:41:50.884Z,97881.63
2018-12-23T07:44:37.931Z,97887.02
2018-12-23T07:47:21.855Z,97888.50
2018-12-23T07:50:05.939Z,97889.14
2018-12-23T07:52:47.525Z,97891.34
2018-12-23T07:55:29.243Z,97894.84
2018-12-23T07:58:01.585Z,97900.16
2018-12-23T08:00:34.011Z,97890.95
2018-12-23T08:03:23.841Z,97901.63
2018-12-23T08:06:07.720Z,97895.13
2018-12-23T08:08:49.745Z,97896.73
2018-12-23T08:11:22.960Z,97888.35
2018-12-23T08:14:04.727Z,97888.29
2018-12-23T08:19:46.448Z,97906.02
2018-12-23T08:22:17.971Z,97919.25
2018-12-23T08:24:48.942Z,97917.11
2018-12-23T08:27:30.617Z,97910.98
2018-12-23T08:30:07.297Z,97921.42
2018-12-23T08:32:48.632Z,97917.73
2018-12-23T08:35:29.858Z,97913.63
2018-12-23T08:38:03.038Z,97912.14
2018-12-23T08:40:36.091Z,97916.37
2018-12-23T08:43:09.287Z,97917.11
2018-12-23T08:45:51.131Z,97911.89
2018-12-23T08:48:38.384Z,97919.65
2018-12-23T08:51:12.508Z,97923.80
2018-12-23T08:53:45.693Z,97925.72
2018-12-23T08:56:27.584Z,97916.44
2018-12-23T08:59:09.512Z,97913.64
2018-12-23T09:01:42.447Z,97917.52
2018-12-23T09:04:24.262Z,97923.34
2018-12-23T09:07:06.240Z,97917.03
2018-12-23T09:09:48.003Z,97928.75
2018-12-23T09:12:29.913Z,97923.80
2018-12-23T09:15:15.987Z,97921.95
2018-12-23T09:17:53.632Z,97928.41
2018-12-23T09:20:26.447Z,97932.45
2018-12-23T09:23:08.166Z,97935.39
2018-12-23T09:25:40.731Z,97937.90
2018-12-23T09:28:22.660Z,97929.78
2018-12-23T09:30:55.795Z,97922.97
2018-12-23T09:33:33.416Z,97914.45
2018-12-23T09:36:05.941Z,97911.55
2018-12-23T09:38:47.925Z,97910.20
2018-12-23T09:41:30.999Z,97909.62
2018-12-23T09:44:12.888Z,97895.02
2018-12-23T09:46:45.205Z,97895.48
2018-12-23T09:49:27.512Z,97894.78
2018-12-23T09:52:00.047Z,97893.20
2018-12-23T09:54:43.218Z,97894.41
2018-12-23T09:57:25.240Z,97881.92
2018-12-23T10:00:06.669Z,97883.42
2018-12-23T10:02:48.384Z,97883.31
2018-12-23T10:05:22.799Z,97879.38
2018-12-23T10:07:53.968Z,97877.98
2018-12-23T10:10:28.577Z,97872.33
2018-12-23T10:13:10.176Z,97872.03
2018-12-23T10:15:51.893Z,97872.08
2018-12-23T10:18:28.288Z,97870.55
2018-12-23T10:21:02.255Z,97863.52
2018-12-23T10:23:47.972Z,97856.35
2018-12-23T10:26:29.920Z,97856.19
2018-12-23T10:32:34.614Z,97838.25
2018-12-23T10:35:06.207Z,97837.61
2018-12-23T10:37:38.369Z,97828.32
2018-12-23T10:40:11.124Z,97822.47
2018-12-23T10:42:42.988Z,97816.00
2018-12-23T10:45:15.192Z,97802.88
2018-12-23T10:47:47.455Z,97786.70
2018-12-23T10:50:20.238Z,97781.43
2018-12-23T10:52:52.034Z,97778.61
2018-12-23T10:55:24.057Z,97780.38
2018-12-23T10:57:56.473Z,97777.30
2018-12-23T11:00:28.734Z,97772.91
2018-12-23T11:03:01.470Z,97768.31
2018-12-23T11:05:33.442Z,97766.80
2018-12-23T11:08:59.557Z,97755.75
2018-12-23T11:11:30.726Z,97753.25
2018-12-23T11:14:02.862Z,97753.87
2018-12-23T11:16:34.650Z,97751.91
2018-12-23T11:19:06.504Z,97748.15
2018-12-23T11:21:38.332Z,97745.80
2018-12-23T11:24:11.233Z,97746.17
2018-12-23T11:26:43.241Z,97729.92
2018-12-23T11:29:15.634Z,97718.31
2018-12-23T11:31:54.093Z,97714.23
2018-12-23T11:34:25.960Z,97715.52
2018-12-23T11:36:58.638Z,97724.30
2018-12-23T11:44:43.291Z,97713.96
2018-12-23T11:47:15.721Z,97705.53
2018-12-23T12:11:20.920Z,97684.42
2018-12-23T12:13:53.238Z,97678.66
2018-12-23T12:16:25.505Z,97679.67
2018-12-23T12:18:58.035Z,97661.77
2018-12-23T12:21:30.887Z,97654.24
2018-12-23T12:24:03.396Z,97654.55
2018-12-23T12:26:35.182Z,97657.76
2018-12-23T12:29:07.334Z,97640.94
2018-12-23T12:31:39.950Z,97640.09
2018-12-23T12:34:12.921Z,97640.38
2018-12-23T12:36:44.813Z,97642.48
2018-12-23T12:39:17.750Z,97629.91
2018-12-23T12:41:50.031Z,97634.48
2018-12-23T12:44:43.379Z,97632.11
2018-12-23T12:47:15.962Z,97633.59
2018-12-23T12:49:47.728Z,97627.23
2018-12-23T12:52:20.300Z,97617.80
2018-12-23T12:54:53.093Z,97619.66
2018-12-23T12:57:25.809Z,97608.37
2018-12-23T13:00:03.920Z,97597.16
2018-12-23T13:02:36.965Z,97584.13
2018-12-23T13:05:16.728Z,97592.89
2018-12-23T13:07:49.417Z,97577.70
2018-12-23T13:10:22.264Z,97566.98
2018-12-23T13:13:33.489Z,97567.55
2018-12-23T13:16:06.442Z,97558.99
2018-12-23T13:21:33.630Z,97549.13
2018-12-23T13:24:05.826Z,97543.48
2018-12-23T13:26:38.056Z,97543.81
2018-12-23T13:29:10.366Z,97531.45
2018-12-23T13:31:42.742Z,97537.41
2018-12-23T13:34:40.025Z,97529.20
2018-12-23T13:37:11.596Z,97520.73
2018-12-23T13:39:43.252Z,97509.31
2018-12-23T13:43:18.406Z,97509.47
2018-12-23T13:46:45.052Z,97511.89
2018-12-23T13:50:11.544Z,97504.55
2018-12-23T13:53:30.456Z,97494.95
2018-12-23T13:57:09.713Z,97494.34
2018-12-23T14:00:32.146Z,97487.83
2018-12-23T14:04:03.724Z,97488.78
2018-12-23T14:07:24.873Z,97481.16
2018-12-23T14:11:18.708Z,97471.56
2018-12-23T14:14:00.308Z,97461.80
2018-12-23T14:16:32.362Z,97450.41
2018-12-23T14:19:04.519Z,97449.32
2018-12-23T14:21:36.613Z,97446.33
2018-12-23T14:24:08.402Z,97444.34
2018-12-23T14:26:40.260Z,97446.81
2018-12-23T14:29:16.627Z,97438.11
2018-12-23T14:31:48.428Z,97438.45
2018-12-23T14:34:20.417Z,97438.08
2018-12-23T14:36:52.830Z,97435.34
2018-12-23T14:39:28.244Z,97433.53
2018-12-23T14:41:58.739Z,97431.68
2018-12-23T14:44:47.981Z,97424.44
2018-12-23T14:47:20.440Z,97412.95
2018-12-23T14:49:52.654Z,97411.48
2018-12-23T14:52:24.597Z,97403.44
2018-12-23T14:55:00.946Z,97394.62
2018-12-23T14:57:32.598Z,97399.11
2018-12-23T15:00:04.411Z,97399.71
2018-12-23T15:02:36.895Z,97392.91
2018-12-23T15:05:08.834Z,97388.86
2018-12-23T15:07:41.302Z,97381.05
2018-12-23T15:10:13.121Z,97385.22
2018-12-23T15:12:45.646Z,97379.13
2018-12-23T15:15:18.007Z,97382.23
2018-12-23T15:17:50.571Z,97379.13
2018-12-23T15:20:22.484Z,97374.43
2018-12-23T15:22:54.750Z,97366.69
2018-12-23T15:25:27.191Z,97368.28
2018-12-23T15:28:03.531Z,97369.09
2018-12-23T15:30:35.609Z,97375.59
2018-12-23T15:33:08.044Z,97371.11
2018-12-23T15:35:42.941Z,97370.27
2018-12-23T15:38:29.681Z,97363.55
2018-12-23T15:41:01.529Z,97368.98
2018-12-23T15:43:33.349Z,97359.83
2018-12-23T15:46:07.026Z,97355.86
2018-12-23T15:48:38.214Z,97348.13
2018-12-23T15:51:10.424Z,97349.63
2018-12-23T15:53:42.535Z,97343.17
2018-12-23T15:56:14.954Z,97345.10
2018-12-23T15:58:47.022Z,97342.41
2018-12-23T16:01:19.490Z,97339.19
2018-12-23T16:03:53.295Z,97337.52
2018-12-23T16:06:25.536Z,97328.28
2018-12-23T16:08:57.061Z,97323.50
2018-12-23T16:11:29.223Z,97317.66
2018-12-23T16:14:01.652Z,97325.05
2018-12-23T16:16:33.806Z,97313.55
2018-12-23T16:19:09.083Z,97318.21
2018-12-23T16:21:41.203Z,97310.97
2018-12-23T16:24:13.642Z,97301.51
2018-12-23T16:26:46.536Z,97300.35
2018-12-23T16:29:18.912Z,97296.48
2018-12-23T16:31:51.402Z,97293.89
2018-12-23T16:34:23.329Z,97290.27
2018-12-23T16:36:55.255Z,97286.56
2018-12-23T16:39:27.087Z,97294.31
2018-12-23T16:41:59.498Z,97286.13
2018-12-23T16:44:32.776Z,97279.66
2018-12-23T16:47:04.605Z,97271.08
2018-12-23T16:49:37.177Z,97288.30
2018-12-23T16:52:09.345Z,97271.26
2018-12-23T16:54:41.515Z,97282.39
2018-12-23T16:57:15.373Z,97279.22
2018-12-23T16:59:49.015Z,97274.58
2018-12-23T17:02:21.856Z,97272.94
2018-12-23T17:04:54.474Z,97267.02
2018-12-23T17:07:26.342Z,97282.14
2018-12-23T17:09:58.905Z,97272.69
2018-12-23T17:12:34.354Z,97266.47
2018-12-23T17:15:12.766Z,97265.55
2018-12-23T17:17:46.651Z,97267.28
2018-12-23T17:20:21.112Z,97278.30
2018-12-23T17:22:54.129Z,97275.50
2018-12-23T17:25:28.976Z,97266.30
2018-12-23T17:28:01.910Z,97287.77
2018-12-23T17:30:46.927Z,97281.40
2018-12-23T17:33:19.043Z,97293.36
2018-12-23T17:35:52.533Z,97290.59
2018-12-23T17:38:24.736Z,97288.42
2018-12-23T17:40:57.373Z,97276.34
2018-12-23T17:43:30.494Z,97280.01
2018-12-23T17:46:06.714Z,97278.84
2018-12-23T17:48:40.490Z,97284.95
2018-12-23T17:51:15.506Z,97281.77
2018-12-23T17:54:01.576Z,97278.80
2018-12-23T17:56:38.793Z,97290.27
2018-12-23T17:59:15.546Z,97277.69
2018-12-23T18:01:49.162Z,97289.75
2018-12-23T18:04:22.115Z,97300.60
2018-12-23T18:07:03.682Z,97291.91
2018-12-23T18:09:34.211Z,97282.81
2018-12-23T18:12:09.451Z,97280.47
2018-12-23T18:14:44.600Z,97273.53
2018-12-23T18:17:19.130Z,97275.41
2018-12-23T18:19:52.326Z,97273.50
2018-12-23T18:22:32.567Z,97246.82
2018-12-23T18:25:04.711Z,97252.42
2018-12-23T18:27:39.891Z,97257.82
2018-12-23T18:30:16.998Z,97268.73
2018-12-23T18:32:49.742Z,97284.41
2018-12-23T18:35:23.218Z,97275.33
2018-12-23T18:37:55.626Z,97266.63
2018-12-23T18:40:33.253Z,97259.36
2018-12-23T18:43:04.046Z,97254.28
2018-12-23T18:45:37.596Z,97259.26
2018-12-23T18:48:10.108Z,97268.35
2018-12-23T18:50:43.674Z,97267.80
2018-12-23T18:53:16.935Z,97261.70
2018-12-23T18:55:57.031Z,97247.48
2018-12-23T18:58:31.865Z,97253.98
2018-12-23T19:01:06.271Z,97260.92
2018-12-23T19:03:47.228Z,97250.03
2018-12-23T19:06:20.512Z,97259.55
2018-12-23T19:09:09.103Z,97255.49
2018-12-23T19:12:13.930Z,97258.86
2018-12-23T19:15:47.891Z,97249.17
2018-12-23T19:19:25.410Z,97255.68
2018-12-23T19:22:36.470Z,97253.45
2018-12-23T19:26:12.435Z,97250.51
2018-12-23T19:30:06.595Z,97249.03
2018-12-23T19:33:16.585Z,97251.64
2018-12-23T19:36:13.350Z,97258.45
2018-12-23T19:39:44.725Z,97247.91
2018-12-23T19:43:12.605Z,97252.03
2018-12-23T19:47:13.427Z,97264.53
2018-12-23T19:50:28.391Z,97258.61
2018-12-23T19:54:17.336Z,97265.36
2018-12-23T19:57:34.034Z,97266.17
2018-12-23T20:00:34.287Z,97273.02
2018-12-23T20:03:46.583Z,97260.55
2018-12-23T20:07:20.576Z,97249.31
2018-12-23T20:11:11.417Z,97254.87
2018-12-23T20:14:34.259Z,97246.34
2018-12-23T20:17:49.682Z,97253.58
2018-12-23T20:21:43.386Z,97260.18
2018-12-23T20:25:12.835Z,97261.37
2018-12-23T20:28:58.673Z,97263.39
2018-12-23T20:32:40.047Z,97262.92
2018-12-23T20:35:38.553Z,97251.88
2018-12-23T20:39:16.009Z,97237.00
2018-12-23T20:42:45.718Z,97255.81
2018-12-23T20:46:41.358Z,97256.47
2018-12-23T20:50:23.963Z,97262.21
2018-12-23T20:53:57.779Z,97256.19
2018-12-23T20:57:15.908Z,97263.30
2018-12-23T21:01:01.387Z,97242.77
2018-12-23T21:04:17.690Z,97248.98
2018-12-23T21:07:46.915Z,97249.75
2018-12-23T21:11:32.294Z,97240.77
2018-12-23T21:15:04.456Z,97250.96
2018-12-23T21:18:25.678Z,97263.42
2018-12-23T21:21:56.214Z,97250.02
2018-12-23T21:25:35.159Z,97257.16
2018-12-23T21:28:58.932Z,97255.21
2018-12-23T21:32:45.607Z,97257.30
2018-12-23T21:36:50.379Z,97262.30
2018-12-23T21:40:29.897Z,97255.66
2018-12-23T21:44:09.208Z,97242.44
2018-12-23T21:47:21.575Z,97251.92
2018-12-23T21:50:30.103Z,97246.19
2018-12-23T21:54:05.132Z,97232.20
2018-12-23T21:57:47.091Z,97243.09
2018-12-23T22:01:32.829Z,97229.67
2018-12-23T22:05:02.859Z,97246.98
2018-12-23T22:08:39.332Z,97230.80
2018-12-23T22:12:25.734Z,97218.87
2018-12-23T22:14:58.308Z,97225.05
2018-12-23T22:17:30.476Z,97219.42
2018-12-23T22:20:02.545Z,97225.51
2018-12-23T22:22:34.983Z,97212.81
2018-12-23T22:25:06.471Z,97224.42
2018-12-23T22:27:38.120Z,97221.71
2018-12-23T22:30:10.099Z,97210.41
2018-12-23T22:32:42.550Z,97219.78
2018-12-23T22:35:15.776Z,97219.40
2018-12-23T22:37:48.043Z,97198.41
2018-12-23T22:40:19.862Z,97204.75
2018-12-23T22:42:51.742Z,97209.48
2018-12-23T22:45:23.942Z,97207.44
2018-12-23T22:47:57.492Z,97192.88
2018-12-23T22:50:29.894Z,97191.25
2018-12-23T22:53:01.980Z,97191.77
2018-12-23T22:55:33.886Z,97198.59
2018-12-23T22:58:25.030Z,97199.20
2018-12-23T23:00:58.012Z,97184.60
2018-12-23T23:03:29.852Z,97193.48
2018-12-23T23:06:02.317Z,97180.97
2018-12-23T23:08:34.217Z,97192.61
2018-12-23T23:11:06.565Z,97181.86
2018-12-23T23:13:41.768Z,97186.96
2018-12-23T23:16:18.867Z,97184.89
2018-12-23T23:18:52.301Z,97185.03
2018-12-23T23:21:39.853Z,97172.41
2018-12-23T23:24:12.520Z,97166.50
2018-12-23T23:26:46.105Z,97165.91
2018-12-23T23:29:19.136Z,97148.16
2018-12-23T23:31:57.059Z,97129.36
2018-12-23T23:34:28.858Z,97131.98
2018-12-23T23:37:00.420Z,97134.28
2018-12-23T23:39:32.851Z,97132.66
2018-12-23T23:42:04.817Z,97129.64
2018-12-23T23:44:36.901Z,97135.55
2018-12-23T23:47:09.079Z,97133.13
2018-12-23T23:49:41.235Z,97108.70
2018-12-23T23:52:13.125Z,97116.83
2018-12-23T23:55:09.529Z,97108.49
2018-12-23T23:57:42.645Z,97091.00
